sensor_id;sensor_type;location;lat;lon;timestamp;P1;durP1;ratioP1;P2;durP2;ratioP2
26908;SDS011;14477;51.038;4.588;2023-04-01T00:00:19;2.47;;;0.90;;
26908;SDS011;14477;51.038;4.588;2023-04-01T00:02:45;1.95;;;0.50;;
26908;SDS011;14477;51.038;4.588;2023-04-01T00:05:11;3.30;;;0.68;;
26908;SDS011;14477;51.038;4.588;2023-04-01T00:07:38;2.90;;;0.63;;
26908;SDS011;14477;51.038;4.588;2023-04-01T00:10:08;2.05;;;0.73;;
26908;SDS011;14477;51.038;4.588;2023-04-01T00:12:36;3.03;;;0.80;;
26908;SDS011;14477;51.038;4.588;2023-04-01T00:15:04;1.63;;;0.60;;
26908;SDS011;14477;51.038;4.588;2023-04-01T00:17:31;1.83;;;0.50;;
26908;SDS011;14477;51.038;4.588;2023-04-01T00:19:57;3.23;;;0.70;;
26908;SDS011;14477;51.038;4.588;2023-04-01T00:22:23;1.33;;;0.50;;
26908;SDS011;14477;51.038;4.588;2023-04-01T00:24:49;2.00;;;0.50;;
26908;SDS011;14477;51.038;4.588;2023-04-01T00:27:15;1.77;;;0.60;;
26908;SDS011;14477;51.038;4.588;2023-04-01T00:29:42;1.58;;;0.60;;
26908;SDS011;14477;51.038;4.588;2023-04-01T00:32:08;1.65;;;0.80;;
26908;SDS011;14477;51.038;4.588;2023-04-01T00:34:34;2.15;;;0.60;;
26908;SDS011;14477;51.038;4.588;2023-04-01T00:37:00;2.90;;;0.50;;
26908;SDS011;14477;51.038;4.588;2023-04-01T00:39:28;1.13;;;0.70;;
26908;SDS011;14477;51.038;4.588;2023-04-01T00:41:54;2.00;;;0.73;;
26908;SDS011;14477;51.038;4.588;2023-04-01T00:44:22;1.20;;;0.70;;
26908;SDS011;14477;51.038;4.588;2023-04-01T00:46:54;1.60;;;0.70;;
26908;SDS011;14477;51.038;4.588;2023-04-01T00:49:21;1.85;;;0.70;;
26908;SDS011;14477;51.038;4.588;2023-04-01T00:51:51;1.03;;;0.50;;
26908;SDS011;14477;51.038;4.588;2023-04-01T00:54:20;1.60;;;0.70;;
26908;SDS011;14477;51.038;4.588;2023-04-01T00:56:48;1.77;;;0.70;;
26908;SDS011;14477;51.038;4.588;2023-04-01T00:59:34;2.05;;;0.70;;
26908;SDS011;14477;51.038;4.588;2023-04-01T01:02:06;1.67;;;0.75;;
26908;SDS011;14477;51.038;4.588;2023-04-01T01:04:35;1.93;;;0.80;;
26908;SDS011;14477;51.038;4.588;2023-04-01T01:09:49;1.75;;;0.68;;
26908;SDS011;14477;51.038;4.588;2023-04-01T01:12:39;2.10;;;0.90;;
26908;SDS011;14477;51.038;4.588;2023-04-01T01:15:24;2.85;;;0.90;;
26908;SDS011;14477;51.038;4.588;2023-04-01T01:31:28;3.03;;;1.10;;
26908;SDS011;14477;51.038;4.588;2023-04-01T01:36:28;2.05;;;1.10;;
26908;SDS011;14477;51.038;4.588;2023-04-01T01:39:00;3.25;;;1.20;;
26908;SDS011;14477;51.038;4.588;2023-04-01T01:41:28;2.40;;;1.20;;
26908;SDS011;14477;51.038;4.588;2023-04-01T01:43:56;1.93;;;0.93;;
26908;SDS011;14477;51.038;4.588;2023-04-01T01:46:25;2.80;;;1.33;;
26908;SDS011;14477;51.038;4.588;2023-04-01T01:48:52;2.10;;;1.30;;
26908;SDS011;14477;51.038;4.588;2023-04-01T01:51:20;1.52;;;1.10;;
26908;SDS011;14477;51.038;4.588;2023-04-01T01:53:47;2.00;;;1.40;;
26908;SDS011;14477;51.038;4.588;2023-04-01T01:56:13;2.87;;;1.30;;
26908;SDS011;14477;51.038;4.588;2023-04-01T01:58:47;2.72;;;1.63;;
26908;SDS011;14477;51.038;4.588;2023-04-01T02:01:21;2.63;;;1.52;;
26908;SDS011;14477;51.038;4.588;2023-04-01T02:03:50;2.72;;;1.40;;
26908;SDS011;14477;51.038;4.588;2023-04-01T02:06:18;2.40;;;1.50;;
26908;SDS011;14477;51.038;4.588;2023-04-01T02:08:57;2.95;;;1.40;;
26908;SDS011;14477;51.038;4.588;2023-04-01T02:11:35;2.42;;;1.48;;
26908;SDS011;14477;51.038;4.588;2023-04-01T02:14:15;2.00;;;1.30;;
26908;SDS011;14477;51.038;4.588;2023-04-01T02:19:22;4.53;;;1.70;;
26908;SDS011;14477;51.038;4.588;2023-04-01T02:22:00;2.83;;;1.50;;
26908;SDS011;14477;51.038;4.588;2023-04-01T02:24:29;2.05;;;1.50;;
26908;SDS011;14477;51.038;4.588;2023-04-01T02:26:56;2.67;;;1.30;;
26908;SDS011;14477;51.038;4.588;2023-04-01T02:29:22;2.13;;;1.50;;
26908;SDS011;14477;51.038;4.588;2023-04-01T02:31:50;1.70;;;1.30;;
26908;SDS011;14477;51.038;4.588;2023-04-01T02:34:18;2.45;;;1.20;;
26908;SDS011;14477;51.038;4.588;2023-04-01T02:36:45;2.47;;;1.20;;
26908;SDS011;14477;51.038;4.588;2023-04-01T02:39:12;2.58;;;1.30;;
26908;SDS011;14477;51.038;4.588;2023-04-01T02:41:42;2.00;;;1.10;;
26908;SDS011;14477;51.038;4.588;2023-04-01T02:44:10;2.42;;;1.48;;
26908;SDS011;14477;51.038;4.588;2023-04-01T02:46:37;2.95;;;1.40;;
26908;SDS011;14477;51.038;4.588;2023-04-01T02:49:03;2.50;;;1.30;;
26908;SDS011;14477;51.038;4.588;2023-04-01T02:51:29;2.40;;;1.05;;
26908;SDS011;14477;51.038;4.588;2023-04-01T02:53:55;2.00;;;1.20;;
26908;SDS011;14477;51.038;4.588;2023-04-01T02:56:21;3.33;;;1.30;;
26908;SDS011;14477;51.038;4.588;2023-04-01T02:58:46;2.33;;;1.25;;
26908;SDS011;14477;51.038;4.588;2023-04-01T03:01:12;3.50;;;1.23;;
26908;SDS011;14477;51.038;4.588;2023-04-01T03:03:38;2.20;;;1.10;;
26908;SDS011;14477;51.038;4.588;2023-04-01T03:06:05;2.77;;;1.10;;
26908;SDS011;14477;51.038;4.588;2023-04-01T03:08:35;2.92;;;1.10;;
26908;SDS011;14477;51.038;4.588;2023-04-01T03:11:01;2.50;;;1.05;;
26908;SDS011;14477;51.038;4.588;2023-04-01T03:13:27;2.57;;;1.07;;
26908;SDS011;14477;51.038;4.588;2023-04-01T03:15:52;1.98;;;1.00;;
26908;SDS011;14477;51.038;4.588;2023-04-01T03:18:18;1.92;;;1.20;;
26908;SDS011;14477;51.038;4.588;2023-04-01T03:20:44;3.17;;;1.00;;
26908;SDS011;14477;51.038;4.588;2023-04-01T03:23:10;2.10;;;0.93;;
26908;SDS011;14477;51.038;4.588;2023-04-01T03:25:36;1.30;;;1.00;;
26908;SDS011;14477;51.038;4.588;2023-04-01T03:28:01;1.83;;;1.02;;
26908;SDS011;14477;51.038;4.588;2023-04-01T03:30:28;2.25;;;1.10;;
26908;SDS011;14477;51.038;4.588;2023-04-01T03:32:56;3.45;;;1.20;;
26908;SDS011;14477;51.038;4.588;2023-04-01T03:35:22;1.33;;;0.87;;
26908;SDS011;14477;51.038;4.588;2023-04-01T03:37:48;2.33;;;1.08;;
26908;SDS011;14477;51.038;4.588;2023-04-01T03:40:15;1.90;;;1.10;;
26908;SDS011;14477;51.038;4.588;2023-04-01T03:42:41;3.53;;;1.40;;
26908;SDS011;14477;51.038;4.588;2023-04-01T03:45:07;2.17;;;1.08;;
26908;SDS011;14477;51.038;4.588;2023-04-01T03:47:34;1.65;;;1.00;;
26908;SDS011;14477;51.038;4.588;2023-04-01T03:50:00;1.95;;;1.20;;
26908;SDS011;14477;51.038;4.588;2023-04-01T03:52:26;1.10;;;1.00;;
26908;SDS011;14477;51.038;4.588;2023-04-01T03:54:52;1.30;;;0.85;;
26908;SDS011;14477;51.038;4.588;2023-04-01T03:57:17;2.70;;;1.17;;
26908;SDS011;14477;51.038;4.588;2023-04-01T03:59:43;1.50;;;1.00;;
26908;SDS011;14477;51.038;4.588;2023-04-01T04:02:09;1.40;;;0.93;;
26908;SDS011;14477;51.038;4.588;2023-04-01T04:04:34;1.45;;;0.95;;
26908;SDS011;14477;51.038;4.588;2023-04-01T04:07:00;1.50;;;1.00;;
26908;SDS011;14477;51.038;4.588;2023-04-01T04:09:26;1.90;;;1.20;;
26908;SDS011;14477;51.038;4.588;2023-04-01T04:11:53;1.40;;;1.10;;
26908;SDS011;14477;51.038;4.588;2023-04-01T04:14:19;2.38;;;1.10;;
26908;SDS011;14477;51.038;4.588;2023-04-01T04:16:45;1.65;;;1.10;;
26908;SDS011;14477;51.038;4.588;2023-04-01T04:19:11;1.57;;;1.17;;
26908;SDS011;14477;51.038;4.588;2023-04-01T04:21:36;1.92;;;1.20;;
26908;SDS011;14477;51.038;4.588;2023-04-01T04:24:02;2.20;;;1.40;;
26908;SDS011;14477;51.038;4.588;2023-04-01T04:26:28;2.55;;;1.33;;
26908;SDS011;14477;51.038;4.588;2023-04-01T04:28:54;2.03;;;1.30;;
26908;SDS011;14477;51.038;4.588;2023-04-01T04:31:21;3.97;;;1.70;;
26908;SDS011;14477;51.038;4.588;2023-04-01T04:33:47;3.03;;;1.83;;
26908;SDS011;14477;51.038;4.588;2023-04-01T04:36:13;3.60;;;1.80;;
26908;SDS011;14477;51.038;4.588;2023-04-01T04:38:41;4.05;;;2.30;;
26908;SDS011;14477;51.038;4.588;2023-04-01T04:41:13;3.00;;;1.80;;
26908;SDS011;14477;51.038;4.588;2023-04-01T04:43:40;3.13;;;1.80;;
26908;SDS011;14477;51.038;4.588;2023-04-01T04:46:07;3.25;;;2.00;;
26908;SDS011;14477;51.038;4.588;2023-04-01T04:48:33;4.00;;;2.00;;
26908;SDS011;14477;51.038;4.588;2023-04-01T04:50:59;3.42;;;1.65;;
26908;SDS011;14477;51.038;4.588;2023-04-01T04:53:26;3.30;;;1.95;;
26908;SDS011;14477;51.038;4.588;2023-04-01T04:55:51;3.07;;;2.00;;
26908;SDS011;14477;51.038;4.588;2023-04-01T04:58:18;3.67;;;2.00;;
26908;SDS011;14477;51.038;4.588;2023-04-01T05:00:44;2.85;;;1.80;;
26908;SDS011;14477;51.038;4.588;2023-04-01T05:03:11;3.20;;;2.15;;
26908;SDS011;14477;51.038;4.588;2023-04-01T05:05:37;3.77;;;2.10;;
26908;SDS011;14477;51.038;4.588;2023-04-01T05:08:03;4.30;;;2.40;;
26908;SDS011;14477;51.038;4.588;2023-04-01T05:10:30;3.38;;;2.20;;
26908;SDS011;14477;51.038;4.588;2023-04-01T05:12:56;4.45;;;2.63;;
26908;SDS011;14477;51.038;4.588;2023-04-01T05:15:22;4.63;;;2.73;;
26908;SDS011;14477;51.038;4.588;2023-04-01T05:17:48;3.77;;;2.67;;
26908;SDS011;14477;51.038;4.588;2023-04-01T05:20:14;4.53;;;2.22;;
26908;SDS011;14477;51.038;4.588;2023-04-01T05:22:40;3.70;;;2.42;;
26908;SDS011;14477;51.038;4.588;2023-04-01T05:25:06;4.37;;;3.10;;
26908;SDS011;14477;51.038;4.588;2023-04-01T05:27:32;4.15;;;2.70;;
26908;SDS011;14477;51.038;4.588;2023-04-01T05:29:58;3.30;;;2.33;;
26908;SDS011;14477;51.038;4.588;2023-04-01T05:32:23;3.37;;;2.37;;
26908;SDS011;14477;51.038;4.588;2023-04-01T05:34:53;3.43;;;2.20;;
26908;SDS011;14477;51.038;4.588;2023-04-01T05:37:18;3.70;;;2.10;;
26908;SDS011;14477;51.038;4.588;2023-04-01T05:39:44;3.00;;;2.00;;
26908;SDS011;14477;51.038;4.588;2023-04-01T05:42:10;3.23;;;1.80;;
26908;SDS011;14477;51.038;4.588;2023-04-01T05:44:36;4.00;;;1.97;;
26908;SDS011;14477;51.038;4.588;2023-04-01T05:47:02;3.03;;;2.10;;
26908;SDS011;14477;51.038;4.588;2023-04-01T05:49:29;2.92;;;1.75;;
26908;SDS011;14477;51.038;4.588;2023-04-01T05:51:55;2.97;;;1.83;;
26908;SDS011;14477;51.038;4.588;2023-04-01T05:54:24;3.50;;;2.17;;
26908;SDS011;14477;51.038;4.588;2023-04-01T05:56:50;4.97;;;2.10;;
26908;SDS011;14477;51.038;4.588;2023-04-01T05:59:16;3.00;;;2.17;;
26908;SDS011;14477;51.038;4.588;2023-04-01T06:01:42;2.83;;;1.90;;
26908;SDS011;14477;51.038;4.588;2023-04-01T06:04:10;2.45;;;1.63;;
26908;SDS011;14477;51.038;4.588;2023-04-01T06:06:41;2.28;;;1.70;;
26908;SDS011;14477;51.038;4.588;2023-04-01T06:09:10;2.50;;;1.67;;
26908;SDS011;14477;51.038;4.588;2023-04-01T06:11:55;2.03;;;1.50;;
26908;SDS011;14477;51.038;4.588;2023-04-01T06:17:26;1.90;;;1.42;;
26908;SDS011;14477;51.038;4.588;2023-04-01T06:25:25;1.80;;;1.30;;
26908;SDS011;14477;51.038;4.588;2023-04-01T06:30:59;1.48;;;1.20;;
26908;SDS011;14477;51.038;4.588;2023-04-01T06:33:44;1.50;;;1.20;;
26908;SDS011;14477;51.038;4.588;2023-04-01T06:42:01;2.30;;;1.30;;
26908;SDS011;14477;51.038;4.588;2023-04-01T06:56:02;1.30;;;1.20;;
26908;SDS011;14477;51.038;4.588;2023-04-01T06:58:44;1.33;;;1.05;;
26908;SDS011;14477;51.038;4.588;2023-04-01T07:01:18;1.00;;;0.90;;
26908;SDS011;14477;51.038;4.588;2023-04-01T07:06:57;1.00;;;0.88;;
26908;SDS011;14477;51.038;4.588;2023-04-01T07:09:26;1.10;;;0.98;;
26908;SDS011;14477;51.038;4.588;2023-04-01T07:11:59;0.95;;;0.80;;
26908;SDS011;14477;51.038;4.588;2023-04-01T07:14:37;1.17;;;1.07;;
26908;SDS011;14477;51.038;4.588;2023-04-01T07:17:09;1.60;;;0.90;;
26908;SDS011;14477;51.038;4.588;2023-04-01T07:19:42;1.10;;;1.00;;
26908;SDS011;14477;51.038;4.588;2023-04-01T07:22:17;0.93;;;0.82;;
26908;SDS011;14477;51.038;4.588;2023-04-01T07:24:46;1.38;;;1.00;;
26908;SDS011;14477;51.038;4.588;2023-04-01T07:27:13;1.40;;;1.10;;
26908;SDS011;14477;51.038;4.588;2023-04-01T07:29:39;1.02;;;0.93;;
26908;SDS011;14477;51.038;4.588;2023-04-01T07:32:20;1.58;;;1.10;;
26908;SDS011;14477;51.038;4.588;2023-04-01T08:22:02;1.60;;;1.40;;
26908;SDS011;14477;51.038;4.588;2023-04-01T08:24:35;1.70;;;1.30;;
26908;SDS011;14477;51.038;4.588;2023-04-01T08:27:12;2.08;;;1.60;;
26908;SDS011;14477;51.038;4.588;2023-04-01T08:29:55;1.65;;;1.45;;
26908;SDS011;14477;51.038;4.588;2023-04-01T08:32:32;1.52;;;1.33;;
26908;SDS011;14477;51.038;4.588;2023-04-01T08:35:26;2.00;;;1.63;;
26908;SDS011;14477;51.038;4.588;2023-04-01T08:37:56;1.48;;;1.23;;
26908;SDS011;14477;51.038;4.588;2023-04-01T08:43:20;2.08;;;1.40;;
26908;SDS011;14477;51.038;4.588;2023-04-01T09:33:09;1.27;;;1.02;;
26908;SDS011;14477;51.038;4.588;2023-04-01T09:36:02;1.10;;;0.90;;
26908;SDS011;14477;51.038;4.588;2023-04-01T09:38:46;1.30;;;1.20;;
26908;SDS011;14477;51.038;4.588;2023-04-01T09:41:23;1.73;;;1.33;;
26908;SDS011;14477;51.038;4.588;2023-04-01T09:44:01;1.30;;;1.20;;
26908;SDS011;14477;51.038;4.588;2023-04-01T09:46:57;1.55;;;1.27;;
26908;SDS011;14477;51.038;4.588;2023-04-01T09:58:02;1.53;;;1.40;;
26908;SDS011;14477;51.038;4.588;2023-04-01T10:36:30;3.50;;;2.20;;
26908;SDS011;14477;51.038;4.588;2023-04-01T10:42:24;2.53;;;1.75;;
26908;SDS011;14477;51.038;4.588;2023-04-01T10:53:19;3.93;;;2.50;;
26908;SDS011;14477;51.038;4.588;2023-04-01T11:15:27;3.53;;;2.30;;
26908;SDS011;14477;51.038;4.588;2023-04-01T11:18:08;3.03;;;2.22;;
26908;SDS011;14477;51.038;4.588;2023-04-01T11:21:27;3.08;;;2.10;;
26908;SDS011;14477;51.038;4.588;2023-04-01T11:26:45;3.22;;;2.42;;
26908;SDS011;14477;51.038;4.588;2023-04-01T11:29:26;3.23;;;2.27;;
26908;SDS011;14477;51.038;4.588;2023-04-01T11:51:50;3.70;;;2.30;;
26908;SDS011;14477;51.038;4.588;2023-04-01T11:57:21;3.20;;;2.33;;
26908;SDS011;14477;51.038;4.588;2023-04-01T12:03:22;2.58;;;1.90;;
26908;SDS011;14477;51.038;4.588;2023-04-01T12:06:05;2.47;;;1.75;;
26908;SDS011;14477;51.038;4.588;2023-04-01T12:17:15;2.10;;;1.55;;
26908;SDS011;14477;51.038;4.588;2023-04-01T12:19:58;2.03;;;1.50;;
26908;SDS011;14477;51.038;4.588;2023-04-01T12:28:06;1.90;;;1.65;;
26908;SDS011;14477;51.038;4.588;2023-04-01T12:36:00;2.80;;;2.03;;
26908;SDS011;14477;51.038;4.588;2023-04-01T12:52:30;2.70;;;1.70;;
26908;SDS011;14477;51.038;4.588;2023-04-01T12:55:41;1.88;;;1.40;;
26908;SDS011;14477;51.038;4.588;2023-04-01T13:03:52;1.70;;;1.20;;
26908;SDS011;14477;51.038;4.588;2023-04-01T13:17:23;1.15;;;0.90;;
26908;SDS011;14477;51.038;4.588;2023-04-01T13:28:35;1.08;;;0.73;;
26908;SDS011;14477;51.038;4.588;2023-04-01T13:31:32;1.17;;;0.93;;
26908;SDS011;14477;51.038;4.588;2023-04-01T13:34:31;0.90;;;0.83;;
26908;SDS011;14477;51.038;4.588;2023-04-01T13:37:32;0.77;;;0.77;;
26908;SDS011;14477;51.038;4.588;2023-04-01T13:40:02;1.08;;;0.68;;
26908;SDS011;14477;51.038;4.588;2023-04-01T13:43:00;0.73;;;0.70;;
26908;SDS011;14477;51.038;4.588;2023-04-01T14:08:26;0.75;;;0.75;;
26908;SDS011;14477;51.038;4.588;2023-04-01T14:16:54;0.70;;;0.63;;
26908;SDS011;14477;51.038;4.588;2023-04-01T14:22:42;0.88;;;0.80;;
26908;SDS011;14477;51.038;4.588;2023-04-01T14:28:20;0.80;;;0.80;;
26908;SDS011;14477;51.038;4.588;2023-04-01T14:31:15;0.70;;;0.70;;
26908;SDS011;14477;51.038;4.588;2023-04-01T14:36:41;1.23;;;0.70;;
26908;SDS011;14477;51.038;4.588;2023-04-01T14:39:43;0.98;;;0.70;;
26908;SDS011;14477;51.038;4.588;2023-04-01T14:42:41;0.98;;;0.70;;
26908;SDS011;14477;51.038;4.588;2023-04-01T14:50:44;3.47;;;0.52;;
26908;SDS011;14477;51.038;4.588;2023-04-01T14:58:18;0.60;;;0.60;;
26908;SDS011;14477;51.038;4.588;2023-04-01T15:00:48;0.52;;;0.52;;
26908;SDS011;14477;51.038;4.588;2023-04-01T15:11:41;0.93;;;0.50;;
26908;SDS011;14477;51.038;4.588;2023-04-01T15:14:26;1.23;;;0.60;;
26908;SDS011;14477;51.038;4.588;2023-04-01T15:33:19;0.80;;;0.80;;
26908;SDS011;14477;51.038;4.588;2023-04-01T15:41:49;0.95;;;0.70;;
26908;SDS011;14477;51.038;4.588;2023-04-01T15:45:29;0.90;;;0.70;;
26908;SDS011;14477;51.038;4.588;2023-04-01T15:49:50;1.30;;;0.80;;
26908;SDS011;14477;51.038;4.588;2023-04-01T16:01:26;0.80;;;0.70;;
26908;SDS011;14477;51.038;4.588;2023-04-01T16:04:15;0.75;;;0.75;;
26908;SDS011;14477;51.038;4.588;2023-04-01T16:12:19;0.68;;;0.65;;
26908;SDS011;14477;51.038;4.588;2023-04-01T16:15:12;0.67;;;0.67;;
26908;SDS011;14477;51.038;4.588;2023-04-01T16:18:00;0.80;;;0.63;;
26908;SDS011;14477;51.038;4.588;2023-04-01T16:20:44;0.75;;;0.65;;
26908;SDS011;14477;51.038;4.588;2023-04-01T16:31:35;1.00;;;0.75;;
26908;SDS011;14477;51.038;4.588;2023-04-01T16:34:34;1.25;;;0.75;;
26908;SDS011;14477;51.038;4.588;2023-04-01T16:37:17;0.80;;;0.80;;
26908;SDS011;14477;51.038;4.588;2023-04-01T16:43:05;0.60;;;0.60;;
26908;SDS011;14477;51.038;4.588;2023-04-01T16:45:38;0.80;;;0.70;;
26908;SDS011;14477;51.038;4.588;2023-04-01T16:50:43;0.70;;;0.70;;
26908;SDS011;14477;51.038;4.588;2023-04-01T16:58:39;1.02;;;0.85;;
26908;SDS011;14477;51.038;4.588;2023-04-01T17:01:14;0.82;;;0.60;;
26908;SDS011;14477;51.038;4.588;2023-04-01T17:03:49;0.70;;;0.60;;
26908;SDS011;14477;51.038;4.588;2023-04-01T17:14:24;2.25;;;0.80;;
26908;SDS011;14477;51.038;4.588;2023-04-01T17:17:29;1.08;;;0.90;;
26908;SDS011;14477;51.038;4.588;2023-04-01T17:23:10;0.93;;;0.90;;
26908;SDS011;14477;51.038;4.588;2023-04-01T17:28:16;1.05;;;0.93;;
26908;SDS011;14477;51.038;4.588;2023-04-01T17:31:10;1.52;;;0.80;;
26908;SDS011;14477;51.038;4.588;2023-04-01T17:33:49;1.33;;;0.90;;
26908;SDS011;14477;51.038;4.588;2023-04-01T17:36:56;1.07;;;0.83;;
26908;SDS011;14477;51.038;4.588;2023-04-01T17:42:41;0.75;;;0.73;;
26908;SDS011;14477;51.038;4.588;2023-04-01T17:48:05;1.48;;;1.10;;
26908;SDS011;14477;51.038;4.588;2023-04-01T17:56:52;1.40;;;1.00;;
26908;SDS011;14477;51.038;4.588;2023-04-01T17:59:36;1.83;;;1.25;;
26908;SDS011;14477;51.038;4.588;2023-04-01T18:07:51;1.80;;;1.23;;
26908;SDS011;14477;51.038;4.588;2023-04-01T18:10:23;2.03;;;1.30;;
26908;SDS011;14477;51.038;4.588;2023-04-01T18:13:19;2.00;;;1.40;;
26908;SDS011;14477;51.038;4.588;2023-04-01T18:26:59;1.90;;;1.27;;
26908;SDS011;14477;51.038;4.588;2023-04-01T18:29:34;2.15;;;1.33;;
26908;SDS011;14477;51.038;4.588;2023-04-01T18:35:02;2.35;;;1.52;;
26908;SDS011;14477;51.038;4.588;2023-04-01T18:37:59;2.50;;;1.40;;
26908;SDS011;14477;51.038;4.588;2023-04-01T18:51:37;2.80;;;1.83;;
26908;SDS011;14477;51.038;4.588;2023-04-01T18:54:24;4.63;;;2.10;;
26908;SDS011;14477;51.038;4.588;2023-04-01T18:56:51;4.13;;;2.13;;
26908;SDS011;14477;51.038;4.588;2023-04-01T18:59:46;3.20;;;2.00;;
26908;SDS011;14477;51.038;4.588;2023-04-01T19:05:36;3.45;;;2.13;;
26908;SDS011;14477;51.038;4.588;2023-04-01T19:10:12;3.77;;;2.07;;
26908;SDS011;14477;51.038;4.588;2023-04-01T19:18:13;3.43;;;2.07;;
26908;SDS011;14477;51.038;4.588;2023-04-01T19:20:53;3.28;;;2.08;;
26908;SDS011;14477;51.038;4.588;2023-04-01T19:43:33;4.70;;;2.00;;
26908;SDS011;14477;51.038;4.588;2023-04-01T19:46:14;5.60;;;2.47;;
26908;SDS011;14477;51.038;4.588;2023-04-01T19:56:57;5.25;;;2.40;;
26908;SDS011;14477;51.038;4.588;2023-04-01T20:02:33;4.47;;;2.58;;
26908;SDS011;14477;51.038;4.588;2023-04-01T20:07:51;4.78;;;2.83;;
26908;SDS011;14477;51.038;4.588;2023-04-01T20:10:26;4.15;;;2.70;;
26908;SDS011;14477;51.038;4.588;2023-04-01T20:13:25;4.03;;;2.53;;
26908;SDS011;14477;51.038;4.588;2023-04-01T20:16:02;6.15;;;3.03;;
26908;SDS011;14477;51.038;4.588;2023-04-01T20:24:04;6.55;;;3.45;;
26908;SDS011;14477;51.038;4.588;2023-04-01T20:26:53;6.20;;;3.60;;
26908;SDS011;14477;51.038;4.588;2023-04-01T20:30:17;5.97;;;3.67;;
26908;SDS011;14477;51.038;4.588;2023-04-01T20:32:56;7.10;;;3.50;;
26908;SDS011;14477;51.038;4.588;2023-04-01T20:41:40;8.93;;;4.10;;
26908;SDS011;14477;51.038;4.588;2023-04-01T21:06:18;4.10;;;2.40;;
26908;SDS011;14477;51.038;4.588;2023-04-01T21:17:10;2.73;;;1.43;;
26908;SDS011;14477;51.038;4.588;2023-04-01T21:25:28;2.60;;;1.70;;
26908;SDS011;14477;51.038;4.588;2023-04-01T21:30:28;3.00;;;2.00;;
26908;SDS011;14477;51.038;4.588;2023-04-01T21:44:33;3.03;;;1.92;;
26908;SDS011;14477;51.038;4.588;2023-04-01T21:50:14;2.80;;;1.80;;
26908;SDS011;14477;51.038;4.588;2023-04-01T22:01:40;4.35;;;2.60;;
26908;SDS011;14477;51.038;4.588;2023-04-01T22:05:14;4.32;;;2.67;;
26908;SDS011;14477;51.038;4.588;2023-04-01T22:07:32;3.90;;;2.50;;
26908;SDS011;14477;51.038;4.588;2023-04-01T22:12:51;5.47;;;3.55;;
26908;SDS011;14477;51.038;4.588;2023-04-01T22:18:08;5.28;;;3.35;;
26908;SDS011;14477;51.038;4.588;2023-04-01T22:20:53;5.37;;;3.43;;
26908;SDS011;14477;51.038;4.588;2023-04-01T22:23:38;5.18;;;3.28;;
26908;SDS011;14477;51.038;4.588;2023-04-01T22:26:33;5.20;;;3.00;;
26908;SDS011;14477;51.038;4.588;2023-04-01T22:37:52;4.40;;;2.83;;
26908;SDS011;14477;51.038;4.588;2023-04-01T22:43:10;4.18;;;2.60;;
26908;SDS011;14477;51.038;4.588;2023-04-01T22:45:53;4.32;;;2.67;;
26908;SDS011;14477;51.038;4.588;2023-04-01T22:48:54;4.37;;;2.80;;
26908;SDS011;14477;51.038;4.588;2023-04-01T22:56:42;4.03;;;2.45;;
26908;SDS011;14477;51.038;4.588;2023-04-01T23:04:48;5.38;;;3.10;;
26908;SDS011;14477;51.038;4.588;2023-04-01T23:09:58;5.55;;;3.47;;
26908;SDS011;14477;51.038;4.588;2023-04-01T23:12:27;5.68;;;3.60;;
26908;SDS011;14477;51.038;4.588;2023-04-01T23:14:55;5.47;;;3.47;;
26908;SDS011;14477;51.038;4.588;2023-04-01T23:20:10;4.88;;;2.65;;
26908;SDS011;14477;51.038;4.588;2023-04-01T23:22:54;6.53;;;3.90;;
26908;SDS011;14477;51.038;4.588;2023-04-01T23:25:46;6.30;;;3.88;;
26908;SDS011;14477;51.038;4.588;2023-04-01T23:30:52;5.82;;;3.50;;
26908;SDS011;14477;51.038;4.588;2023-04-01T23:38:17;4.65;;;3.00;;
26908;SDS011;14477;51.038;4.588;2023-04-01T23:40:44;5.82;;;3.33;;
26908;SDS011;14477;51.038;4.588;2023-04-01T23:43:23;4.78;;;2.85;;
26908;SDS011;14477;51.038;4.588;2023-04-01T23:45:53;5.40;;;3.23;;
26908;SDS011;14477;51.038;4.588;2023-04-01T23:48:24;5.00;;;3.13;;
26908;SDS011;14477;51.038;4.588;2023-04-01T23:51:00;5.18;;;3.20;;
26908;SDS011;14477;51.038;4.588;2023-04-01T23:53:32;5.70;;;3.50;;
26908;SDS011;14477;51.038;4.588;2023-04-01T23:56:00;4.82;;;3.20;;
26908;SDS011;14477;51.038;4.588;2023-04-01T23:58:38;4.90;;;3.00;;
